sensor_id;sensor_type;location;lat;lon;timestamp;temperature;humidity
48836;DHT22;62581;47.342;7.908;2023-11-21T00:00:29;9.00;99.90
48836;DHT22;62581;47.342;7.908;2023-11-21T00:02:56;9.10;99.90
48836;DHT22;62581;47.342;7.908;2023-11-21T00:05:24;9.00;99.90
48836;DHT22;62581;47.342;7.908;2023-11-21T00:07:52;9.10;99.90
48836;DHT22;62581;47.342;7.908;2023-11-21T00:10:19;9.10;99.90
48836;DHT22;62581;47.342;7.908;2023-11-21T00:12:46;9.10;99.90
48836;DHT22;62581;47.342;7.908;2023-11-21T00:15:14;9.10;99.90
48836;DHT22;62581;47.342;7.908;2023-11-21T00:17:41;9.10;99.90
48836;DHT22;62581;47.342;7.908;2023-11-21T00:20:09;9.10;99.90
48836;DHT22;62581;47.342;7.908;2023-11-21T00:22:38;9.10;99.90
48836;DHT22;62581;47.342;7.908;2023-11-21T00:25:08;9.10;99.90
48836;DHT22;62581;47.342;7.908;2023-11-21T00:27:35;9.10;99.90
48836;DHT22;62581;47.342;7.908;2023-11-21T00:30:03;9.10;99.90
48836;DHT22;62581;47.342;7.908;2023-11-21T00:32:32;9.00;99.90
48836;DHT22;62581;47.342;7.908;2023-11-21T00:34:59;9.10;99.90
48836;DHT22;62581;47.342;7.908;2023-11-21T00:37:26;9.00;99.90
48836;DHT22;62581;47.342;7.908;2023-11-21T00:39:53;9.10;99.90
48836;DHT22;62581;47.342;7.908;2023-11-21T00:42:21;9.10;99.90
48836;DHT22;62581;47.342;7.908;2023-11-21T00:44:48;9.10;99.90
48836;DHT22;62581;47.342;7.908;2023-11-21T00:47:15;9.00;99.90
48836;DHT22;62581;47.342;7.908;2023-11-21T00:49:42;9.00;99.90
48836;DHT22;62581;47.342;7.908;2023-11-21T00:52:10;9.00;99.90
48836;DHT22;62581;47.342;7.908;2023-11-21T00:54:37;9.00;99.90
48836;DHT22;62581;47.342;7.908;2023-11-21T00:57:04;9.00;99.90
48836;DHT22;62581;47.342;7.908;2023-11-21T00:59:32;9.00;99.90
48836;DHT22;62581;47.342;7.908;2023-11-21T01:02:00;9.00;99.90
48836;DHT22;62581;47.342;7.908;2023-11-21T01:04:27;9.00;99.90
48836;DHT22;62581;47.342;7.908;2023-11-21T01:06:54;9.00;99.90
48836;DHT22;62581;47.342;7.908;2023-11-21T01:09:22;9.00;99.90
48836;DHT22;62581;47.342;7.908;2023-11-21T01:11:49;9.00;99.90
48836;DHT22;62581;47.342;7.908;2023-11-21T01:14:17;9.00;99.90
48836;DHT22;62581;47.342;7.908;2023-11-21T01:16:46;9.00;99.90
48836;DHT22;62581;47.342;7.908;2023-11-21T01:19:14;9.00;99.90
48836;DHT22;62581;47.342;7.908;2023-11-21T01:21:41;9.10;99.90
48836;DHT22;62581;47.342;7.908;2023-11-21T01:24:09;9.10;99.90
48836;DHT22;62581;47.342;7.908;2023-11-21T01:26:36;9.20;99.90
48836;DHT22;62581;47.342;7.908;2023-11-21T01:29:03;9.10;99.90
48836;DHT22;62581;47.342;7.908;2023-11-21T01:31:30;9.20;99.90
48836;DHT22;62581;47.342;7.908;2023-11-21T01:33:59;9.10;99.90
48836;DHT22;62581;47.342;7.908;2023-11-21T01:36:30;9.00;99.90
48836;DHT22;62581;47.342;7.908;2023-11-21T01:38:58;8.90;99.90
48836;DHT22;62581;47.342;7.908;2023-11-21T01:41:26;8.90;99.90
48836;DHT22;62581;47.342;7.908;2023-11-21T01:43:54;8.90;99.90
48836;DHT22;62581;47.342;7.908;2023-11-21T01:46:21;8.80;99.90
48836;DHT22;62581;47.342;7.908;2023-11-21T01:48:49;8.70;99.90
48836;DHT22;62581;47.342;7.908;2023-11-21T01:51:18;8.70;99.90
48836;DHT22;62581;47.342;7.908;2023-11-21T01:53:45;8.70;99.90
48836;DHT22;62581;47.342;7.908;2023-11-21T01:56:13;8.60;99.90
48836;DHT22;62581;47.342;7.908;2023-11-21T01:58:41;8.60;99.90
48836;DHT22;62581;47.342;7.908;2023-11-21T02:01:08;8.60;99.90
48836;DHT22;62581;47.342;7.908;2023-11-21T02:03:36;8.60;99.90
48836;DHT22;62581;47.342;7.908;2023-11-21T02:06:04;8.60;99.90
48836;DHT22;62581;47.342;7.908;2023-11-21T02:08:33;8.70;99.90
48836;DHT22;62581;47.342;7.908;2023-11-21T02:11:00;8.70;99.90
48836;DHT22;62581;47.342;7.908;2023-11-21T02:13:28;8.70;99.90
48836;DHT22;62581;47.342;7.908;2023-11-21T02:15:55;8.80;99.90
48836;DHT22;62581;47.342;7.908;2023-11-21T02:18:22;8.70;99.90
48836;DHT22;62581;47.342;7.908;2023-11-21T02:20:49;8.70;99.90
48836;DHT22;62581;47.342;7.908;2023-11-21T02:23:18;8.70;99.90
48836;DHT22;62581;47.342;7.908;2023-11-21T02:25:45;8.60;99.90
48836;DHT22;62581;47.342;7.908;2023-11-21T02:28:12;8.60;99.90
48836;DHT22;62581;47.342;7.908;2023-11-21T02:30:41;8.60;99.90
48836;DHT22;62581;47.342;7.908;2023-11-21T02:33:08;8.60;99.90
48836;DHT22;62581;47.342;7.908;2023-11-21T02:35:35;8.60;99.90
48836;DHT22;62581;47.342;7.908;2023-11-21T02:38:02;8.50;99.90
48836;DHT22;62581;47.342;7.908;2023-11-21T02:40:30;8.50;99.90
48836;DHT22;62581;47.342;7.908;2023-11-21T02:42:57;8.50;99.90
48836;DHT22;62581;47.342;7.908;2023-11-21T02:45:24;8.40;99.90
48836;DHT22;62581;47.342;7.908;2023-11-21T02:47:51;8.40;99.90
48836;DHT22;62581;47.342;7.908;2023-11-21T02:50:22;8.30;99.90
48836;DHT22;62581;47.342;7.908;2023-11-21T02:52:49;8.30;99.90
48836;DHT22;62581;47.342;7.908;2023-11-21T02:55:16;8.30;99.90
48836;DHT22;62581;47.342;7.908;2023-11-21T02:57:45;8.30;99.90
48836;DHT22;62581;47.342;7.908;2023-11-21T03:00:12;8.30;99.90
48836;DHT22;62581;47.342;7.908;2023-11-21T03:02:40;8.20;99.90
48836;DHT22;62581;47.342;7.908;2023-11-21T03:05:08;8.20;99.90
48836;DHT22;62581;47.342;7.908;2023-11-21T03:07:36;8.20;99.90
48836;DHT22;62581;47.342;7.908;2023-11-21T03:10:04;8.20;99.90
48836;DHT22;62581;47.342;7.908;2023-11-21T03:12:31;8.20;99.90
48836;DHT22;62581;47.342;7.908;2023-11-21T03:14:59;8.30;99.90
48836;DHT22;62581;47.342;7.908;2023-11-21T03:17:27;8.30;99.90
48836;DHT22;62581;47.342;7.908;2023-11-21T03:19:54;8.30;99.90
48836;DHT22;62581;47.342;7.908;2023-11-21T03:22:22;8.20;99.90
48836;DHT22;62581;47.342;7.908;2023-11-21T03:24:50;8.30;99.90
48836;DHT22;62581;47.342;7.908;2023-11-21T03:27:17;8.30;99.90
48836;DHT22;62581;47.342;7.908;2023-11-21T03:29:44;8.30;99.90
48836;DHT22;62581;47.342;7.908;2023-11-21T03:32:13;8.30;99.90
48836;DHT22;62581;47.342;7.908;2023-11-21T03:34:53;8.20;99.90
48836;DHT22;62581;47.342;7.908;2023-11-21T03:37:21;8.30;99.90
48836;DHT22;62581;47.342;7.908;2023-11-21T03:39:48;8.30;99.90
48836;DHT22;62581;47.342;7.908;2023-11-21T03:42:16;8.20;99.90
48836;DHT22;62581;47.342;7.908;2023-11-21T03:44:43;8.20;99.90
48836;DHT22;62581;47.342;7.908;2023-11-21T03:47:10;8.20;99.90
48836;DHT22;62581;47.342;7.908;2023-11-21T03:49:38;8.20;99.90
48836;DHT22;62581;47.342;7.908;2023-11-21T03:52:06;8.20;99.90
48836;DHT22;62581;47.342;7.908;2023-11-21T03:54:34;8.20;99.90
48836;DHT22;62581;47.342;7.908;2023-11-21T03:57:02;8.20;99.90
48836;DHT22;62581;47.342;7.908;2023-11-21T03:59:29;8.20;99.90
48836;DHT22;62581;47.342;7.908;2023-11-21T04:01:56;8.20;99.90
48836;DHT22;62581;47.342;7.908;2023-11-21T04:04:23;8.10;99.90
48836;DHT22;62581;47.342;7.908;2023-11-21T04:06:51;8.10;99.90
48836;DHT22;62581;47.342;7.908;2023-11-21T04:09:19;8.10;99.90
48836;DHT22;62581;47.342;7.908;2023-11-21T04:11:46;8.10;99.90
48836;DHT22;62581;47.342;7.908;2023-11-21T04:14:13;8.10;99.90
48836;DHT22;62581;47.342;7.908;2023-11-21T04:16:41;8.10;99.90
48836;DHT22;62581;47.342;7.908;2023-11-21T04:19:08;8.00;99.90
48836;DHT22;62581;47.342;7.908;2023-11-21T04:21:36;8.00;99.90
48836;DHT22;62581;47.342;7.908;2023-11-21T04:24:06;8.00;99.90
48836;DHT22;62581;47.342;7.908;2023-11-21T04:26:33;8.00;99.90
48836;DHT22;62581;47.342;7.908;2023-11-21T04:29:00;8.00;99.90
48836;DHT22;62581;47.342;7.908;2023-11-21T04:31:27;8.10;99.90
48836;DHT22;62581;47.342;7.908;2023-11-21T04:33:54;8.10;99.90
48836;DHT22;62581;47.342;7.908;2023-11-21T04:36:21;8.10;99.90
48836;DHT22;62581;47.342;7.908;2023-11-21T04:38:48;8.10;99.90
48836;DHT22;62581;47.342;7.908;2023-11-21T04:41:16;8.10;99.90
48836;DHT22;62581;47.342;7.908;2023-11-21T04:43:43;8.10;99.90
48836;DHT22;62581;47.342;7.908;2023-11-21T04:46:10;8.10;99.90
48836;DHT22;62581;47.342;7.908;2023-11-21T04:48:37;8.10;99.90
48836;DHT22;62581;47.342;7.908;2023-11-21T04:51:05;8.10;99.90
48836;DHT22;62581;47.342;7.908;2023-11-21T04:53:32;8.10;99.90
48836;DHT22;62581;47.342;7.908;2023-11-21T04:56:00;8.10;99.90
48836;DHT22;62581;47.342;7.908;2023-11-21T04:58:28;8.10;99.90
48836;DHT22;62581;47.342;7.908;2023-11-21T05:00:56;8.10;99.90
48836;DHT22;62581;47.342;7.908;2023-11-21T05:03:23;8.10;99.90
48836;DHT22;62581;47.342;7.908;2023-11-21T05:05:51;8.10;99.90
48836;DHT22;62581;47.342;7.908;2023-11-21T05:08:18;8.10;99.90
48836;DHT22;62581;47.342;7.908;2023-11-21T05:10:46;8.10;99.90
48836;DHT22;62581;47.342;7.908;2023-11-21T05:13:13;8.10;99.90
48836;DHT22;62581;47.342;7.908;2023-11-21T05:15:44;8.10;99.90
48836;DHT22;62581;47.342;7.908;2023-11-21T05:18:11;8.20;99.90
48836;DHT22;62581;47.342;7.908;2023-11-21T05:20:39;8.20;99.90
48836;DHT22;62581;47.342;7.908;2023-11-21T05:23:06;8.20;99.90
48836;DHT22;62581;47.342;7.908;2023-11-21T05:25:33;8.20;99.90
48836;DHT22;62581;47.342;7.908;2023-11-21T05:28:00;8.20;99.90
48836;DHT22;62581;47.342;7.908;2023-11-21T05:30:28;8.20;99.90
48836;DHT22;62581;47.342;7.908;2023-11-21T05:32:56;8.20;99.90
48836;DHT22;62581;47.342;7.908;2023-11-21T05:35:23;8.10;99.90
48836;DHT22;62581;47.342;7.908;2023-11-21T05:37:50;8.20;99.90
48836;DHT22;62581;47.342;7.908;2023-11-21T05:40:17;8.20;99.90
48836;DHT22;62581;47.342;7.908;2023-11-21T05:42:45;8.10;99.90
48836;DHT22;62581;47.342;7.908;2023-11-21T05:45:12;8.20;99.90
48836;DHT22;62581;47.342;7.908;2023-11-21T05:47:40;8.10;99.90
48836;DHT22;62581;47.342;7.908;2023-11-21T05:50:09;8.10;99.90
48836;DHT22;62581;47.342;7.908;2023-11-21T05:52:38;8.10;99.90
48836;DHT22;62581;47.342;7.908;2023-11-21T05:55:06;8.10;99.90
48836;DHT22;62581;47.342;7.908;2023-11-21T05:57:33;8.10;99.90
48836;DHT22;62581;47.342;7.908;2023-11-21T06:00:03;8.10;99.90
48836;DHT22;62581;47.342;7.908;2023-11-21T06:02:37;8.10;99.90
48836;DHT22;62581;47.342;7.908;2023-11-21T06:05:04;8.10;99.90
48836;DHT22;62581;47.342;7.908;2023-11-21T06:07:33;8.10;99.90
48836;DHT22;62581;47.342;7.908;2023-11-21T06:10:01;8.10;99.90
48836;DHT22;62581;47.342;7.908;2023-11-21T06:12:31;8.10;99.90
48836;DHT22;62581;47.342;7.908;2023-11-21T06:15:01;8.10;99.90
48836;DHT22;62581;47.342;7.908;2023-11-21T06:17:29;8.10;99.90
48836;DHT22;62581;47.342;7.908;2023-11-21T06:19:57;8.10;99.90
48836;DHT22;62581;47.342;7.908;2023-11-21T06:22:24;8.10;99.90
48836;DHT22;62581;47.342;7.908;2023-11-21T06:24:51;8.10;99.90
48836;DHT22;62581;47.342;7.908;2023-11-21T06:27:18;8.20;99.90
48836;DHT22;62581;47.342;7.908;2023-11-21T06:29:45;8.20;99.90
48836;DHT22;62581;47.342;7.908;2023-11-21T06:32:13;8.20;99.90
48836;DHT22;62581;47.342;7.908;2023-11-21T06:34:41;8.30;99.90
48836;DHT22;62581;47.342;7.908;2023-11-21T06:37:09;8.30;99.90
48836;DHT22;62581;47.342;7.908;2023-11-21T06:39:36;8.30;99.90
48836;DHT22;62581;47.342;7.908;2023-11-21T06:42:06;8.30;99.90
48836;DHT22;62581;47.342;7.908;2023-11-21T06:44:33;8.30;99.90
48836;DHT22;62581;47.342;7.908;2023-11-21T06:47:02;8.30;99.90
48836;DHT22;62581;47.342;7.908;2023-11-21T06:49:29;8.30;99.90
48836;DHT22;62581;47.342;7.908;2023-11-21T06:51:57;8.40;99.90
48836;DHT22;62581;47.342;7.908;2023-11-21T06:54:24;8.40;99.90
48836;DHT22;62581;47.342;7.908;2023-11-21T06:56:51;8.40;99.90
48836;DHT22;62581;47.342;7.908;2023-11-21T06:59:20;8.40;99.90
48836;DHT22;62581;47.342;7.908;2023-11-21T07:01:47;8.40;99.90
48836;DHT22;62581;47.342;7.908;2023-11-21T07:04:14;8.40;99.90
48836;DHT22;62581;47.342;7.908;2023-11-21T07:06:42;8.40;99.90
48836;DHT22;62581;47.342;7.908;2023-11-21T07:09:09;8.40;99.90
48836;DHT22;62581;47.342;7.908;2023-11-21T07:11:37;8.40;99.90
48836;DHT22;62581;47.342;7.908;2023-11-21T07:14:04;8.40;99.90
48836;DHT22;62581;47.342;7.908;2023-11-21T07:16:34;8.40;99.90
48836;DHT22;62581;47.342;7.908;2023-11-21T07:19:03;8.40;99.90
48836;DHT22;62581;47.342;7.908;2023-11-21T07:21:31;8.40;99.90
48836;DHT22;62581;47.342;7.908;2023-11-21T07:23:59;8.50;99.90
48836;DHT22;62581;47.342;7.908;2023-11-21T07:26:26;8.50;99.90
48836;DHT22;62581;47.342;7.908;2023-11-21T07:28:53;8.50;99.90
48836;DHT22;62581;47.342;7.908;2023-11-21T07:31:21;8.50;99.90
48836;DHT22;62581;47.342;7.908;2023-11-21T07:33:50;8.60;99.90
48836;DHT22;62581;47.342;7.908;2023-11-21T07:36:18;8.60;99.90
48836;DHT22;62581;47.342;7.908;2023-11-21T07:38:46;8.60;99.90
48836;DHT22;62581;47.342;7.908;2023-11-21T07:41:13;8.70;99.90
48836;DHT22;62581;47.342;7.908;2023-11-21T07:43:43;8.70;99.90
48836;DHT22;62581;47.342;7.908;2023-11-21T07:46:10;8.70;99.90
48836;DHT22;62581;47.342;7.908;2023-11-21T07:48:38;8.70;99.90
48836;DHT22;62581;47.342;7.908;2023-11-21T07:51:07;8.70;99.90
48836;DHT22;62581;47.342;7.908;2023-11-21T07:53:34;8.70;99.90
48836;DHT22;62581;47.342;7.908;2023-11-21T07:56:03;8.70;99.90
48836;DHT22;62581;47.342;7.908;2023-11-21T07:58:31;8.70;99.90
48836;DHT22;62581;47.342;7.908;2023-11-21T08:00:59;8.70;99.90
48836;DHT22;62581;47.342;7.908;2023-11-21T08:03:26;8.70;99.90
48836;DHT22;62581;47.342;7.908;2023-11-21T08:05:55;8.70;99.90
48836;DHT22;62581;47.342;7.908;2023-11-21T08:08:23;8.70;99.90
48836;DHT22;62581;47.342;7.908;2023-11-21T08:10:50;8.80;99.90
48836;DHT22;62581;47.342;7.908;2023-11-21T08:13:22;8.90;99.90
48836;DHT22;62581;47.342;7.908;2023-11-21T08:15:49;8.80;99.90
48836;DHT22;62581;47.342;7.908;2023-11-21T08:18:16;8.80;99.90
48836;DHT22;62581;47.342;7.908;2023-11-21T08:20:43;8.80;99.90
48836;DHT22;62581;47.342;7.908;2023-11-21T08:23:14;8.80;99.90
48836;DHT22;62581;47.342;7.908;2023-11-21T08:25:44;8.80;99.90
48836;DHT22;62581;47.342;7.908;2023-11-21T08:28:11;8.90;99.90
48836;DHT22;62581;47.342;7.908;2023-11-21T08:30:39;8.90;99.90
48836;DHT22;62581;47.342;7.908;2023-11-21T08:33:07;9.00;99.90
48836;DHT22;62581;47.342;7.908;2023-11-21T08:35:35;9.10;99.90
48836;DHT22;62581;47.342;7.908;2023-11-21T08:38:02;9.10;99.90
48836;DHT22;62581;47.342;7.908;2023-11-21T08:40:30;9.10;99.90
48836;DHT22;62581;47.342;7.908;2023-11-21T08:42:58;9.10;99.90
48836;DHT22;62581;47.342;7.908;2023-11-21T08:45:25;9.10;99.90
48836;DHT22;62581;47.342;7.908;2023-11-21T08:47:52;9.10;99.90
48836;DHT22;62581;47.342;7.908;2023-11-21T08:50:19;9.10;99.90
48836;DHT22;62581;47.342;7.908;2023-11-21T08:52:47;9.20;99.90
48836;DHT22;62581;47.342;7.908;2023-11-21T08:55:14;9.20;99.90
48836;DHT22;62581;47.342;7.908;2023-11-21T08:57:43;9.20;99.90
48836;DHT22;62581;47.342;7.908;2023-11-21T09:00:13;9.20;99.90
48836;DHT22;62581;47.342;7.908;2023-11-21T09:02:43;9.20;99.90
48836;DHT22;62581;47.342;7.908;2023-11-21T09:05:10;9.20;99.90
48836;DHT22;62581;47.342;7.908;2023-11-21T09:07:39;9.10;99.90
48836;DHT22;62581;47.342;7.908;2023-11-21T09:10:07;9.10;99.90
48836;DHT22;62581;47.342;7.908;2023-11-21T09:12:35;9.10;99.90
48836;DHT22;62581;47.342;7.908;2023-11-21T09:15:03;9.10;99.90
48836;DHT22;62581;47.342;7.908;2023-11-21T09:17:33;9.10;99.90
48836;DHT22;62581;47.342;7.908;2023-11-21T09:20:01;9.10;99.90
48836;DHT22;62581;47.342;7.908;2023-11-21T09:22:29;9.10;99.90
48836;DHT22;62581;47.342;7.908;2023-11-21T09:24:57;9.10;99.90
48836;DHT22;62581;47.342;7.908;2023-11-21T09:27:24;9.10;99.90
48836;DHT22;62581;47.342;7.908;2023-11-21T09:29:52;9.10;99.90
48836;DHT22;62581;47.342;7.908;2023-11-21T09:32:20;9.10;99.90
48836;DHT22;62581;47.342;7.908;2023-11-21T09:34:48;9.20;99.90
48836;DHT22;62581;47.342;7.908;2023-11-21T09:37:15;9.20;99.90
48836;DHT22;62581;47.342;7.908;2023-11-21T09:39:42;9.20;99.90
48836;DHT22;62581;47.342;7.908;2023-11-21T09:42:12;9.20;99.90
48836;DHT22;62581;47.342;7.908;2023-11-21T09:44:46;9.20;99.90
48836;DHT22;62581;47.342;7.908;2023-11-21T09:47:15;9.30;99.90
48836;DHT22;62581;47.342;7.908;2023-11-21T09:49:46;9.40;99.90
48836;DHT22;62581;47.342;7.908;2023-11-21T09:52:26;9.60;99.90
48836;DHT22;62581;47.342;7.908;2023-11-21T09:54:53;9.70;99.90
48836;DHT22;62581;47.342;7.908;2023-11-21T09:57:23;9.90;99.90
48836;DHT22;62581;47.342;7.908;2023-11-21T09:59:52;10.00;99.90
48836;DHT22;62581;47.342;7.908;2023-11-21T10:02:22;10.10;99.90
48836;DHT22;62581;47.342;7.908;2023-11-21T10:04:51;10.30;99.90
48836;DHT22;62581;47.342;7.908;2023-11-21T10:07:21;10.50;99.90
48836;DHT22;62581;47.342;7.908;2023-11-21T10:09:51;10.60;99.90
48836;DHT22;62581;47.342;7.908;2023-11-21T10:12:18;10.70;99.90
48836;DHT22;62581;47.342;7.908;2023-11-21T10:14:48;10.60;99.90
48836;DHT22;62581;47.342;7.908;2023-11-21T10:17:18;10.50;99.90
48836;DHT22;62581;47.342;7.908;2023-11-21T10:19:46;10.40;99.90
48836;DHT22;62581;47.342;7.908;2023-11-21T10:22:14;10.30;99.90
48836;DHT22;62581;47.342;7.908;2023-11-21T10:24:43;10.20;99.90
48836;DHT22;62581;47.342;7.908;2023-11-21T10:27:10;10.20;99.90
48836;DHT22;62581;47.342;7.908;2023-11-21T10:29:39;10.20;99.90
48836;DHT22;62581;47.342;7.908;2023-11-21T10:32:07;10.30;99.90
48836;DHT22;62581;47.342;7.908;2023-11-21T10:34:35;10.30;99.90
48836;DHT22;62581;47.342;7.908;2023-11-21T10:37:11;10.40;99.90
48836;DHT22;62581;47.342;7.908;2023-11-21T10:39:39;10.40;99.90
48836;DHT22;62581;47.342;7.908;2023-11-21T10:42:09;10.40;99.90
48836;DHT22;62581;47.342;7.908;2023-11-21T10:44:36;10.30;99.90
48836;DHT22;62581;47.342;7.908;2023-11-21T10:47:03;10.30;99.90
48836;DHT22;62581;47.342;7.908;2023-11-21T10:49:30;10.30;99.90
48836;DHT22;62581;47.342;7.908;2023-11-21T10:51:58;10.20;99.90
48836;DHT22;62581;47.342;7.908;2023-11-21T10:54:25;10.20;99.90
48836;DHT22;62581;47.342;7.908;2023-11-21T10:56:56;10.10;99.90
48836;DHT22;62581;47.342;7.908;2023-11-21T10:59:27;10.20;99.90
48836;DHT22;62581;47.342;7.908;2023-11-21T11:01:57;10.20;99.90
48836;DHT22;62581;47.342;7.908;2023-11-21T11:04:27;10.10;99.90
48836;DHT22;62581;47.342;7.908;2023-11-21T11:06:57;10.10;99.90
48836;DHT22;62581;47.342;7.908;2023-11-21T11:09:24;10.10;99.90
48836;DHT22;62581;47.342;7.908;2023-11-21T11:11:52;10.10;99.90
48836;DHT22;62581;47.342;7.908;2023-11-21T11:14:20;10.00;99.90
48836;DHT22;62581;47.342;7.908;2023-11-21T11:16:54;10.00;99.90
48836;DHT22;62581;47.342;7.908;2023-11-21T11:19:21;10.00;99.90
48836;DHT22;62581;47.342;7.908;2023-11-21T11:22:00;9.90;99.90
48836;DHT22;62581;47.342;7.908;2023-11-21T11:24:53;9.90;99.90
48836;DHT22;62581;47.342;7.908;2023-11-21T11:27:40;9.80;99.90
48836;DHT22;62581;47.342;7.908;2023-11-21T11:30:16;9.70;99.90
48836;DHT22;62581;47.342;7.908;2023-11-21T11:32:55;9.70;99.90
48836;DHT22;62581;47.342;7.908;2023-11-21T11:35:33;9.70;99.90
48836;DHT22;62581;47.342;7.908;2023-11-21T11:38:01;9.60;99.90
48836;DHT22;62581;47.342;7.908;2023-11-21T11:40:39;9.60;99.90
48836;DHT22;62581;47.342;7.908;2023-11-21T11:43:06;9.60;99.90
48836;DHT22;62581;47.342;7.908;2023-11-21T11:45:34;9.70;99.90
48836;DHT22;62581;47.342;7.908;2023-11-21T11:48:08;9.80;99.90
48836;DHT22;62581;47.342;7.908;2023-11-21T11:50:44;9.80;99.90
48836;DHT22;62581;47.342;7.908;2023-11-21T11:53:33;9.90;99.90
48836;DHT22;62581;47.342;7.908;2023-11-21T11:56:23;10.00;99.90
48836;DHT22;62581;47.342;7.908;2023-11-21T11:58:52;10.00;99.90
48836;DHT22;62581;47.342;7.908;2023-11-21T12:01:19;10.00;99.90
48836;DHT22;62581;47.342;7.908;2023-11-21T12:04:25;10.10;99.90
48836;DHT22;62581;47.342;7.908;2023-11-21T12:07:00;10.20;99.90
48836;DHT22;62581;47.342;7.908;2023-11-21T12:09:29;10.20;99.90
48836;DHT22;62581;47.342;7.908;2023-11-21T12:11:57;10.20;99.90
48836;DHT22;62581;47.342;7.908;2023-11-21T12:14:24;10.20;99.90
48836;DHT22;62581;47.342;7.908;2023-11-21T12:16:52;10.30;99.90
48836;DHT22;62581;47.342;7.908;2023-11-21T12:19:20;10.30;99.90
48836;DHT22;62581;47.342;7.908;2023-11-21T12:21:48;10.30;99.90
48836;DHT22;62581;47.342;7.908;2023-11-21T12:24:16;10.20;99.90
48836;DHT22;62581;47.342;7.908;2023-11-21T12:26:43;10.20;99.90
48836;DHT22;62581;47.342;7.908;2023-11-21T12:29:11;10.20;99.90
48836;DHT22;62581;47.342;7.908;2023-11-21T12:31:38;10.20;99.90
48836;DHT22;62581;47.342;7.908;2023-11-21T12:34:05;10.20;99.90
48836;DHT22;62581;47.342;7.908;2023-11-21T12:36:34;10.20;99.90
48836;DHT22;62581;47.342;7.908;2023-11-21T12:39:02;10.20;99.90
48836;DHT22;62581;47.342;7.908;2023-11-21T12:41:29;10.20;99.90
48836;DHT22;62581;47.342;7.908;2023-11-21T12:43:57;10.30;99.90
48836;DHT22;62581;47.342;7.908;2023-11-21T12:46:25;10.30;99.90
48836;DHT22;62581;47.342;7.908;2023-11-21T12:48:55;10.40;99.90
48836;DHT22;62581;47.342;7.908;2023-11-21T12:51:23;10.40;99.90
48836;DHT22;62581;47.342;7.908;2023-11-21T12:53:52;10.40;99.90
48836;DHT22;62581;47.342;7.908;2023-11-21T12:56:21;10.40;99.90
48836;DHT22;62581;47.342;7.908;2023-11-21T12:58:49;10.30;99.90
48836;DHT22;62581;47.342;7.908;2023-11-21T13:01:16;10.30;99.90
48836;DHT22;62581;47.342;7.908;2023-11-21T13:03:47;10.30;99.90
48836;DHT22;62581;47.342;7.908;2023-11-21T13:06:17;10.30;99.90
48836;DHT22;62581;47.342;7.908;2023-11-21T13:08:45;10.40;99.90
48836;DHT22;62581;47.342;7.908;2023-11-21T13:11:13;10.40;99.90
48836;DHT22;62581;47.342;7.908;2023-11-21T13:13:42;10.40;99.90
48836;DHT22;62581;47.342;7.908;2023-11-21T13:16:10;10.50;99.90
48836;DHT22;62581;47.342;7.908;2023-11-21T13:18:38;10.50;99.90
48836;DHT22;62581;47.342;7.908;2023-11-21T13:21:08;10.60;99.90
48836;DHT22;62581;47.342;7.908;2023-11-21T13:23:39;10.70;99.90
48836;DHT22;62581;47.342;7.908;2023-11-21T13:26:07;10.90;99.90
48836;DHT22;62581;47.342;7.908;2023-11-21T13:28:36;11.10;99.90
48836;DHT22;62581;47.342;7.908;2023-11-21T13:31:03;11.30;99.90
48836;DHT22;62581;47.342;7.908;2023-11-21T13:33:35;11.40;99.90
48836;DHT22;62581;47.342;7.908;2023-11-21T13:36:04;11.50;99.90
48836;DHT22;62581;47.342;7.908;2023-11-21T13:38:33;11.60;99.90
48836;DHT22;62581;47.342;7.908;2023-11-21T13:41:01;11.70;99.90
48836;DHT22;62581;47.342;7.908;2023-11-21T13:43:34;11.90;99.90
48836;DHT22;62581;47.342;7.908;2023-11-21T13:46:02;12.00;99.90
48836;DHT22;62581;47.342;7.908;2023-11-21T13:48:34;12.00;99.90
48836;DHT22;62581;47.342;7.908;2023-11-21T13:51:08;11.80;99.90
48836;DHT22;62581;47.342;7.908;2023-11-21T13:53:41;11.50;99.90
48836;DHT22;62581;47.342;7.908;2023-11-21T13:56:08;11.30;99.90
48836;DHT22;62581;47.342;7.908;2023-11-21T13:58:38;11.10;99.90
48836;DHT22;62581;47.342;7.908;2023-11-21T14:01:10;10.90;99.90
48836;DHT22;62581;47.342;7.908;2023-11-21T14:03:54;10.80;99.90
48836;DHT22;62581;47.342;7.908;2023-11-21T14:06:27;10.70;99.90
48836;DHT22;62581;47.342;7.908;2023-11-21T14:09:00;10.60;99.90
48836;DHT22;62581;47.342;7.908;2023-11-21T14:11:30;10.50;99.90
48836;DHT22;62581;47.342;7.908;2023-11-21T14:13:59;10.40;99.90
48836;DHT22;62581;47.342;7.908;2023-11-21T14:16:27;10.10;99.90
48836;DHT22;62581;47.342;7.908;2023-11-21T14:18:54;10.00;99.90
48836;DHT22;62581;47.342;7.908;2023-11-21T14:21:27;10.00;99.90
48836;DHT22;62581;47.342;7.908;2023-11-21T14:23:54;10.00;99.90
48836;DHT22;62581;47.342;7.908;2023-11-21T14:26:21;10.00;99.90
48836;DHT22;62581;47.342;7.908;2023-11-21T14:28:49;10.00;99.90
48836;DHT22;62581;47.342;7.908;2023-11-21T14:31:18;10.00;99.90
48836;DHT22;62581;47.342;7.908;2023-11-21T14:33:45;10.00;99.90
48836;DHT22;62581;47.342;7.908;2023-11-21T14:36:12;9.90;99.90
48836;DHT22;62581;47.342;7.908;2023-11-21T14:38:42;9.90;99.90
48836;DHT22;62581;47.342;7.908;2023-11-21T14:41:09;9.90;99.90
48836;DHT22;62581;47.342;7.908;2023-11-21T14:43:37;9.90;99.90
48836;DHT22;62581;47.342;7.908;2023-11-21T14:46:05;9.80;99.90
48836;DHT22;62581;47.342;7.908;2023-11-21T14:48:37;9.80;99.90
48836;DHT22;62581;47.342;7.908;2023-11-21T14:51:08;9.80;99.90
48836;DHT22;62581;47.342;7.908;2023-11-21T14:53:53;9.70;99.90
48836;DHT22;62581;47.342;7.908;2023-11-21T14:56:20;9.80;99.90
48836;DHT22;62581;47.342;7.908;2023-11-21T14:58:53;9.70;99.90
48836;DHT22;62581;47.342;7.908;2023-11-21T15:01:21;9.70;99.90
48836;DHT22;62581;47.342;7.908;2023-11-21T15:04:02;9.70;99.90
48836;DHT22;62581;47.342;7.908;2023-11-21T15:06:31;9.70;99.90
48836;DHT22;62581;47.342;7.908;2023-11-21T15:08:58;9.70;99.90
48836;DHT22;62581;47.342;7.908;2023-11-21T15:11:42;9.70;99.90
48836;DHT22;62581;47.342;7.908;2023-11-21T15:14:09;9.70;99.90
48836;DHT22;62581;47.342;7.908;2023-11-21T15:16:41;9.60;99.90
48836;DHT22;62581;47.342;7.908;2023-11-21T15:19:14;9.70;99.90
48836;DHT22;62581;47.342;7.908;2023-11-21T15:21:44;9.70;99.90
48836;DHT22;62581;47.342;7.908;2023-11-21T15:24:11;9.70;99.90
48836;DHT22;62581;47.342;7.908;2023-11-21T15:26:38;9.70;99.90
48836;DHT22;62581;47.342;7.908;2023-11-21T15:29:06;9.60;99.90
48836;DHT22;62581;47.342;7.908;2023-11-21T15:31:33;9.60;99.90
48836;DHT22;62581;47.342;7.908;2023-11-21T15:34:01;9.60;99.90
48836;DHT22;62581;47.342;7.908;2023-11-21T15:36:32;9.60;99.90
48836;DHT22;62581;47.342;7.908;2023-11-21T15:38:59;9.60;99.90
48836;DHT22;62581;47.342;7.908;2023-11-21T15:41:26;9.70;99.90
48836;DHT22;62581;47.342;7.908;2023-11-21T15:43:53;9.60;99.90
48836;DHT22;62581;47.342;7.908;2023-11-21T15:46:20;9.60;99.90
48836;DHT22;62581;47.342;7.908;2023-11-21T15:48:47;9.50;99.90
48836;DHT22;62581;47.342;7.908;2023-11-21T15:51:19;9.50;99.90